This is the latest recevied weather packets stored in our database for station/object JM1YTT-13. If no packets are shown the sender has not sent any weather packets the latest 10 day(s).
| Time | Temp. | Humidity | Pressure | Rain* | Wind** | Luminosity | Snow |
|---|---|---|---|---|---|---|---|
| 1777957990 | 23.33° C | 37% | 1018.2 hPa | 0 mm | - | - | - |
| 1777956190 | 25° C | 28% | 1018.4 hPa | 0 mm | - | - | - |
| 1777954390 | 23.89° C | 30% | 1018.4 hPa | 0 mm | - | - | - |
| 1777943590 | 20.56° C | 35% | 1018.3 hPa | 0 mm | - | - | - |
| 1777939990 | 18.89° C | 38% | 1018.2 hPa | 0 mm | - | - | - |
| 1777938190 | 17.78° C | 42% | 1018 hPa | 0 mm | - | - | - |
| 1777934590 | 16.11° C | 50% | 1017.7 hPa | 0 mm | - | - | - |
| 1777930990 | 10.56° C | 62% | 1014.9 hPa | 0 mm | - | - | - |
| 1777929190 | 10.56° C | 62% | 1014.9 hPa | 0 mm | - | - | - |
| 1777927390 | 10.56° C | 62% | 1014.9 hPa | 0 mm | - | - | - |
| 1777923790 | 11.11° C | 62% | 1014.6 hPa | 0 mm | - | - | - |
| 1777921990 | 11.11° C | 61% | 1014 hPa | 0 mm | - | - | - |
| 1777918390 | 12.22° C | 58% | 1012.5 hPa | 0 mm | - | - | - |
| 1777916590 | 12.22° C | 55% | 1011.6 hPa | 0 mm | - | - | - |
| 1777914790 | 13.33° C | 50% | 1010.9 hPa | 0 mm | - | - | - |
| 1777912990 | 13.89° C | 49% | 1009.7 hPa | 0 mm | - | - | - |
| 1777911190 | 14.44° C | 48% | 1009.4 hPa | 0 mm | - | - | - |
| 1777907590 | 15° C | 50% | 1007.6 hPa | 0 mm | - | - | - |
| 1777905790 | 16.11° C | 50% | 1006.9 hPa | 0 mm | - | - | - |
| 1777900390 | 16.11° C | 78% | 1004.7 hPa | 0 mm | - | - | - |
| 1777896790 | 16.67° C | 76% | 1003.3 hPa | 0 mm | - | - | - |
| 1777894990 | 17.22° C | 75% | 1001.8 hPa | 0 mm | - | - | - |
| 1777893190 | 17.78° C | 74% | 1001.4 hPa | 0 mm | - | - | - |
| 1777889590 | 20.56° C | 58% | 998.6 hPa | 0 mm | - | - | - |
| 1777885990 | 21.67° C | 56% | 996.9 hPa | 0 mm | - | - | - |
* Rain latest hour (hover to see other rain measurements)
** Current wind speed in m/s (hover to see current wind gust speed)